Airfield :
LOGIN :

Register | Disclaimer

   EN    FR    IT 

 










Legend :    VFR   Marginal VFR   IFR   Intensive IFR   Very Intensive IFR
Visi :
Ceiling :
>= 8 km
>= 3000ft
5 to 8 km
1000 to 3000 ft
1500m to 5 km
500 to 1000 ft
800 to 1500m
200 to 500 ft
< 800m
< 200 ft
Symbols :   Thunderstorms  Fog  Heavy snow  Heavy precipitations  Wind > 20 kt
SIGMETs :     Misc.  Thunderstorms  Icing  Turbulence  Mountain Waves  Volcanic Ashes






- Airport Elevation : 308 ft


ESCF - Malmen AB

CURRENT METAR :
  • 122350Z AUTO 19003KT 9999 NCD 01/01 Q1004

EXPIRED METARs :
  • 122320Z AUTO 14004KT 9999 NCD 02/01 Q1004
  • 122250Z AUTO 13004KT 9999 NCD 02/01 Q1004
  • 122220Z AUTO 15005KT 9999 SCT016/// 02/02 Q1004
  • 122150Z AUTO 16007KT 9999 BKN020/// 03/02 Q1005
  • 122120Z AUTO 16008KT 9999 OVC021/// 03/02 Q1005

Expired Forecast.



MET'MAP, your aeronautical weather chart ! - Copyright ORBIFLY December 2007 - Disclaimer

ORBIFLY MET'MAP TEAM :

Programming & Development : Alexandra Zaïnal
Concept & Development : Baudouin d'Aumeries
Co-Development & Prog : Marc-Olivier Méhu
Technical & hardware support : Manuel Goepfert

Contact : metmap@orbifly.com




SOURCES & CREDITS :

   NOAA